Terminal Aerodrome Forecast
Issued by NWS

Current Version | Previous Version | Graphics & Text | Print | Product List | Glossary On
Versions: 1 2 3 4 5 6 7 8 9 10 11 12 13 14 15
000
FTUS41 KPBZ 261123
TAFHLG
TAF
KHLG 261123Z 2612/2712 17005KT P6SM SCT250
     FM261600 19007KT P6SM VCSH BKN050
     FM261800 22010G20KT 6SM -SHRA VCTS OVC040CB
     FM262200 27010G20KT P6SM VCSH OVC015
     FM270000 28008KT P6SM BKN020
     FM270400 25006KT P6SM SCT020=

USA.gov is the U.S. government's official web portal to all federal, state and local government web resources and services.